Bristol, Illinois
Current Conditions -  °F | °C
As of 1:52 PM on Monday 24 Nov 2014 (Local Time) from KARR Reporting Station
Overcast Overcast  
Wind Chill: 15°   Ceiling: 1200
Heat Index: 30°   Visibility: 1.2mi
Dew Point: 25°   Wind: 29mph
Humidity: 82%   Direction: 250°WSW
Pressure: 29.47"   Gusts: 43mph
Location:  41.69°N, 88.43°W
Report Text: KARR 241952Z 25025G37KT 1 1/4SM BKN012 OVC017 M01/M04 A2947 RMK AO2 PK WND 26038/1929 UPB28E48SNE28 PRESRR SLP983 P0000 T10111039
Loading
Personal Weather Stations






























Interactive Weather Map New forecast layout! Learn more

10-Day Weather Forecast

Advertisements
Track Severe Weather on mobile